Weather at Charles M. Schulz Sonoma County Airport

Public forecast

Using degrees Fahrenheit for public forecast. Weather courtesy of forecast.io.

Current aviation weather report (METAR) for Charles M. Schulz Sonoma County Airport

Retrieved 2020/09/21 14:53 UTC (46 minutes ago):

KSTS 211453Z AUTO 00000KT 6SM FU HZ CLR 11/09 A2992 RMK AO2 SLP126 T01060094 53014

Aviation forecast (TAF) for Charles M. Schulz Sonoma County Airport

Retrieved 2020/09/21 12:22 UTC (3 hours ago):

TAF KSTS 211120Z 2112/2212 VRB03KT 6SM FU HZ SKC FM212200 21008KT P6SM SKC FM220400 VRB04KT P6SM SKC FM220600 VRB04KT P6SM FEW007 SCT200